If you wish to contribute or participate in the discussions about articles you are invited to join SKYbrary as a registered user

 Actions

Albacete

From SKYbrary Wiki

LEAB
Airport
ICAO: LEAB
Summary
Name Albacete
Region Europe
Territory Spain ES.gif
Location Albacete
Serving
Coordinates 38° 56' 57.985", -1° 51' 47.9773"
Runways
Designator Length Width Surface ROPS
9/27 2700 m8,858.268 ft 60 m196.85 ft ASP /
METAR
Observation LEAB 122100Z 27005KT CAVOK 01/M02 Q1023 NOSIG
Station Albacete / Los Llanos
Date/Time 12 December 2017 21:00:00
Wind direction 270°
Wind speed 05 kts
Lowest cloud amount clouds and visibility OK
Temperature 1°C
Dew point
Humidity 80%
QNH 1023 hPa
Weather condition n/a


Albacete Airport

ICAO: LEAB IATA: ---

Description

Albacete Airport is an airport located at the Los Llanos Air Base, about 4 miles"miles" is not declared as a valid unit of measurement for this property. south of the city of Albacete, Spain.

Climatology

Dry-summer subtropical ”Mediterranean" climate (Köppen climate classification Csa) - characterized by hot, dry summers and mild winters. During the summer, subtropical high pressure cells dominate, making rainfall unlikely except for the occasional thunderstorm. In the winter, periodic storms bring rain (snow at higher elevations).

Maps

Terrain

Loading map...

Airport Layout

Loading map...



Accidents & Serious Incidents at or in vicinity of LEAB

None on SKYbrary